sensor_id;sensor_type;location;lat;lon;timestamp;pressure;altitude;pressure_sealevel;temperature
63689;BMP280;54895;40.928;14.480;2023-06-10T00:02:17;100707.59;;;25.20
63689;BMP280;54895;40.928;14.480;2023-06-10T00:04:44;100702.28;;;25.07
63689;BMP280;54895;40.928;14.480;2023-06-10T00:07:10;100671.38;;;25.01
63689;BMP280;54895;40.928;14.480;2023-06-10T00:09:37;100689.13;;;25.02
63689;BMP280;54895;40.928;14.480;2023-06-10T00:12:09;100706.13;;;25.17
63689;BMP280;54895;40.928;14.480;2023-06-10T00:14:39;100704.72;;;25.16
63689;BMP280;54895;40.928;14.480;2023-06-10T00:17:09;100706.16;;;24.87
63689;BMP280;54895;40.928;14.480;2023-06-10T00:19:36;100690.88;;;24.80
63689;BMP280;54895;40.928;14.480;2023-06-10T00:22:02;100689.75;;;24.69
63689;BMP280;54895;40.928;14.480;2023-06-10T00:24:29;100717.38;;;25.10
63689;BMP280;54895;40.928;14.480;2023-06-10T00:26:55;100734.41;;;25.10
63689;BMP280;54895;40.928;14.480;2023-06-10T00:29:21;100727.31;;;25.03
63689;BMP280;54895;40.928;14.480;2023-06-10T00:31:47;100718.97;;;25.00
63689;BMP280;54895;40.928;14.480;2023-06-10T00:34:14;100715.28;;;24.93
63689;BMP280;54895;40.928;14.480;2023-06-10T00:36:40;100682.00;;;24.64
63689;BMP280;54895;40.928;14.480;2023-06-10T00:39:06;100656.06;;;24.61
63689;BMP280;54895;40.928;14.480;2023-06-10T00:41:33;100649.31;;;24.62
63689;BMP280;54895;40.928;14.480;2023-06-10T00:44:00;100646.72;;;24.66
63689;BMP280;54895;40.928;14.480;2023-06-10T00:46:26;100658.06;;;24.76
63689;BMP280;54895;40.928;14.480;2023-06-10T00:48:56;100656.66;;;24.75
63689;BMP280;54895;40.928;14.480;2023-06-10T00:51:22;100644.81;;;24.68
63689;BMP280;54895;40.928;14.480;2023-06-10T00:53:49;100636.94;;;24.59
63689;BMP280;54895;40.928;14.480;2023-06-10T00:56:15;100645.78;;;24.75
63689;BMP280;54895;40.928;14.480;2023-06-10T00:58:42;100663.78;;;24.82
63689;BMP280;54895;40.928;14.480;2023-06-10T01:01:08;100664.56;;;24.84
63689;BMP280;54895;40.928;14.480;2023-06-10T01:07:27;100652.25;;;24.83
63689;BMP280;54895;40.928;14.480;2023-06-10T01:10:09;100652.94;;;24.84
63689;BMP280;54895;40.928;14.480;2023-06-10T01:12:44;100664.19;;;24.92
63689;BMP280;54895;40.928;14.480;2023-06-10T01:15:16;100681.47;;;24.98
63689;BMP280;54895;40.928;14.480;2023-06-10T01:18:03;100680.72;;;24.96
63689;BMP280;54895;40.928;14.480;2023-06-10T01:20:32;100667.97;;;24.85
63689;BMP280;54895;40.928;14.480;2023-06-10T01:22:59;100666.66;;;24.86
63689;BMP280;54895;40.928;14.480;2023-06-10T01:25:27;100668.31;;;24.93
63689;BMP280;54895;40.928;14.480;2023-06-10T01:28:02;100662.69;;;25.04
63689;BMP280;54895;40.928;14.480;2023-06-10T01:31:18;100672.16;;;25.18
63689;BMP280;54895;40.928;14.480;2023-06-10T01:33:27;100667.31;;;25.17
63689;BMP280;54895;40.928;14.480;2023-06-10T01:35:57;100676.97;;;25.20
63689;BMP280;54895;40.928;14.480;2023-06-10T01:38:26;100685.50;;;25.45
63689;BMP280;54895;40.928;14.480;2023-06-10T01:40:55;100697.63;;;25.42
63689;BMP280;54895;40.928;14.480;2023-06-10T01:43:21;100695.81;;;25.49
63689;BMP280;54895;40.928;14.480;2023-06-10T01:45:48;100670.75;;;25.35
63689;BMP280;54895;40.928;14.480;2023-06-10T01:48:15;100688.47;;;25.51
63689;BMP280;54895;40.928;14.480;2023-06-10T01:50:43;100681.53;;;25.48
63689;BMP280;54895;40.928;14.480;2023-06-10T01:53:10;100663.59;;;25.26
63689;BMP280;54895;40.928;14.480;2023-06-10T01:55:36;100646.03;;;25.13
63689;BMP280;54895;40.928;14.480;2023-06-10T01:58:02;100639.66;;;25.07
63689;BMP280;54895;40.928;14.480;2023-06-10T02:00:29;100617.69;;;24.86
63689;BMP280;54895;40.928;14.480;2023-06-10T02:02:55;100596.63;;;24.71
63689;BMP280;54895;40.928;14.480;2023-06-10T02:05:22;100558.22;;;24.32
63689;BMP280;54895;40.928;14.480;2023-06-10T02:07:49;100553.28;;;24.44
63689;BMP280;54895;40.928;14.480;2023-06-10T02:10:15;100556.63;;;24.27
63689;BMP280;54895;40.928;14.480;2023-06-10T02:12:41;100565.84;;;24.51
63689;BMP280;54895;40.928;14.480;2023-06-10T02:15:08;100593.81;;;24.69
63689;BMP280;54895;40.928;14.480;2023-06-10T02:17:34;100630.00;;;25.04
63689;BMP280;54895;40.928;14.480;2023-06-10T02:20:00;100655.69;;;25.16
63689;BMP280;54895;40.928;14.480;2023-06-10T02:22:32;100646.97;;;25.03
63689;BMP280;54895;40.928;14.480;2023-06-10T02:25:00;100653.94;;;25.23
63689;BMP280;54895;40.928;14.480;2023-06-10T02:27:26;100626.34;;;24.98
63689;BMP280;54895;40.928;14.480;2023-06-10T02:29:54;100612.50;;;24.92
63689;BMP280;54895;40.928;14.480;2023-06-10T02:32:21;100591.19;;;24.71
63689;BMP280;54895;40.928;14.480;2023-06-10T02:34:47;100583.97;;;24.77
63689;BMP280;54895;40.928;14.480;2023-06-10T02:37:15;100629.34;;;25.21
63689;BMP280;54895;40.928;14.480;2023-06-10T02:39:42;100638.06;;;25.17
63689;BMP280;54895;40.928;14.480;2023-06-10T02:42:11;100668.06;;;25.19
63689;BMP280;54895;40.928;14.480;2023-06-10T02:44:37;100669.25;;;25.14
63689;BMP280;54895;40.928;14.480;2023-06-10T02:47:04;100630.19;;;24.93
63689;BMP280;54895;40.928;14.480;2023-06-10T02:49:33;100654.00;;;25.08
63689;BMP280;54895;40.928;14.480;2023-06-10T02:52:00;100648.56;;;24.92
63689;BMP280;54895;40.928;14.480;2023-06-10T02:54:27;100650.16;;;24.82
63689;BMP280;54895;40.928;14.480;2023-06-10T02:56:55;100640.16;;;24.71
63689;BMP280;54895;40.928;14.480;2023-06-10T02:59:24;100625.94;;;24.57
63689;BMP280;54895;40.928;14.480;2023-06-10T03:01:53;100613.81;;;24.60
63689;BMP280;54895;40.928;14.480;2023-06-10T03:07:37;100591.31;;;23.82
63689;BMP280;54895;40.928;14.480;2023-06-10T03:10:05;100575.53;;;23.78
63689;BMP280;54895;40.928;14.480;2023-06-10T03:12:32;100578.19;;;23.92
63689;BMP280;54895;40.928;14.480;2023-06-10T03:14:59;100586.63;;;23.98
63689;BMP280;54895;40.928;14.480;2023-06-10T03:17:26;100575.28;;;23.88
63689;BMP280;54895;40.928;14.480;2023-06-10T03:19:53;100598.97;;;24.01
63689;BMP280;54895;40.928;14.480;2023-06-10T03:22:20;100586.53;;;23.96
63689;BMP280;54895;40.928;14.480;2023-06-10T03:24:58;100544.31;;;23.79
63689;BMP280;54895;40.928;14.480;2023-06-10T03:27:26;100522.13;;;23.70
63689;BMP280;54895;40.928;14.480;2023-06-10T03:29:55;100553.72;;;24.07
63689;BMP280;54895;40.928;14.480;2023-06-10T03:32:22;100549.78;;;23.95
63689;BMP280;54895;40.928;14.480;2023-06-10T03:34:48;100539.09;;;23.99
63689;BMP280;54895;40.928;14.480;2023-06-10T03:37:15;100531.03;;;24.01
63689;BMP280;54895;40.928;14.480;2023-06-10T03:39:43;100533.59;;;24.12
63689;BMP280;54895;40.928;14.480;2023-06-10T03:42:09;100523.66;;;24.19
63689;BMP280;54895;40.928;14.480;2023-06-10T03:44:36;100522.44;;;24.22
63689;BMP280;54895;40.928;14.480;2023-06-10T03:47:03;100522.94;;;24.34
63689;BMP280;54895;40.928;14.480;2023-06-10T03:49:47;100521.81;;;24.39
63689;BMP280;54895;40.928;14.480;2023-06-10T03:52:13;100517.94;;;24.44
63689;BMP280;54895;40.928;14.480;2023-06-10T03:54:40;100512.75;;;24.50
63689;BMP280;54895;40.928;14.480;2023-06-10T03:57:06;100509.59;;;24.55
63689;BMP280;54895;40.928;14.480;2023-06-10T03:59:32;100501.44;;;24.55
63689;BMP280;54895;40.928;14.480;2023-06-10T04:01:58;100502.38;;;24.62
63689;BMP280;54895;40.928;14.480;2023-06-10T04:07:53;100497.91;;;24.53
63689;BMP280;54895;40.928;14.480;2023-06-10T04:10:20;100495.97;;;24.55
63689;BMP280;54895;40.928;14.480;2023-06-10T04:12:47;100505.25;;;24.66
63689;BMP280;54895;40.928;14.480;2023-06-10T04:15:14;100504.47;;;24.63
63689;BMP280;54895;40.928;14.480;2023-06-10T04:17:42;100519.19;;;24.74
63689;BMP280;54895;40.928;14.480;2023-06-10T04:20:10;100506.88;;;24.55
63689;BMP280;54895;40.928;14.480;2023-06-10T04:22:38;100505.00;;;24.60
63689;BMP280;54895;40.928;14.480;2023-06-10T04:25:05;100530.28;;;24.95
63689;BMP280;54895;40.928;14.480;2023-06-10T04:27:35;100529.06;;;24.83
63689;BMP280;54895;40.928;14.480;2023-06-10T04:30:03;100521.28;;;24.75
63689;BMP280;54895;40.928;14.480;2023-06-10T04:32:32;100510.78;;;24.68
63689;BMP280;54895;40.928;14.480;2023-06-10T04:34:59;100524.25;;;24.81
63689;BMP280;54895;40.928;14.480;2023-06-10T04:37:26;100537.94;;;24.83
63689;BMP280;54895;40.928;14.480;2023-06-10T04:39:56;100552.44;;;24.88
63689;BMP280;54895;40.928;14.480;2023-06-10T04:42:24;100577.34;;;24.98
63689;BMP280;54895;40.928;14.480;2023-06-10T04:44:50;100596.19;;;25.09
63689;BMP280;54895;40.928;14.480;2023-06-10T04:47:17;100609.66;;;25.22
63689;BMP280;54895;40.928;14.480;2023-06-10T04:49:45;100601.34;;;25.36
63689;BMP280;54895;40.928;14.480;2023-06-10T04:52:12;100596.59;;;25.36
63689;BMP280;54895;40.928;14.480;2023-06-10T04:54:41;100608.13;;;25.52
63689;BMP280;54895;40.928;14.480;2023-06-10T04:57:08;100585.28;;;25.26
63689;BMP280;54895;40.928;14.480;2023-06-10T04:59:37;100585.78;;;25.38
63689;BMP280;54895;40.928;14.480;2023-06-10T05:02:05;100586.03;;;25.44
63689;BMP280;54895;40.928;14.480;2023-06-10T05:04:31;100599.63;;;25.62
63689;BMP280;54895;40.928;14.480;2023-06-10T05:07:00;100606.03;;;25.68
63689;BMP280;54895;40.928;14.480;2023-06-10T05:09:26;100626.31;;;25.65
63689;BMP280;54895;40.928;14.480;2023-06-10T05:11:54;100606.50;;;25.63
63689;BMP280;54895;40.928;14.480;2023-06-10T05:14:20;100608.72;;;25.86
63689;BMP280;54895;40.928;14.480;2023-06-10T05:16:47;100606.78;;;25.88
63689;BMP280;54895;40.928;14.480;2023-06-10T05:19:14;100650.09;;;26.17
63689;BMP280;54895;40.928;14.480;2023-06-10T05:21:45;100650.91;;;26.02
63689;BMP280;54895;40.928;14.480;2023-06-10T05:24:12;100668.28;;;26.11
63689;BMP280;54895;40.928;14.480;2023-06-10T05:26:38;100670.47;;;26.14
63689;BMP280;54895;40.928;14.480;2023-06-10T05:29:05;100686.84;;;25.97
63689;BMP280;54895;40.928;14.480;2023-06-10T05:31:32;100671.63;;;26.09
63689;BMP280;54895;40.928;14.480;2023-06-10T05:33:59;100667.72;;;26.14
63689;BMP280;54895;40.928;14.480;2023-06-10T05:36:25;100690.56;;;26.05
63689;BMP280;54895;40.928;14.480;2023-06-10T05:38:52;100665.97;;;26.03
63689;BMP280;54895;40.928;14.480;2023-06-10T05:41:19;100630.84;;;25.76
63689;BMP280;54895;40.928;14.480;2023-06-10T05:43:48;100626.63;;;25.73
63689;BMP280;54895;40.928;14.480;2023-06-10T05:46:15;100651.78;;;26.07
63689;BMP280;54895;40.928;14.480;2023-06-10T05:48:42;100661.22;;;26.23
63689;BMP280;54895;40.928;14.480;2023-06-10T05:51:09;100695.13;;;26.55
63689;BMP280;54895;40.928;14.480;2023-06-10T05:53:36;100694.38;;;26.52
63689;BMP280;54895;40.928;14.480;2023-06-10T05:56:07;100705.09;;;26.66
63689;BMP280;54895;40.928;14.480;2023-06-10T05:58:38;100706.97;;;26.61
63689;BMP280;54895;40.928;14.480;2023-06-10T06:01:06;100704.06;;;26.75
63689;BMP280;54895;40.928;14.480;2023-06-10T06:03:33;100742.53;;;27.02
63689;BMP280;54895;40.928;14.480;2023-06-10T06:06:00;100753.41;;;26.81
63689;BMP280;54895;40.928;14.480;2023-06-10T06:08:27;100746.19;;;26.89
63689;BMP280;54895;40.928;14.480;2023-06-10T06:10:54;100758.63;;;27.14
63689;BMP280;54895;40.928;14.480;2023-06-10T06:13:20;100763.53;;;27.17
63689;BMP280;54895;40.928;14.480;2023-06-10T06:15:48;100762.56;;;27.28
63689;BMP280;54895;40.928;14.480;2023-06-10T06:18:15;100735.69;;;27.01
63689;BMP280;54895;40.928;14.480;2023-06-10T06:20:42;100731.94;;;27.12
63689;BMP280;54895;40.928;14.480;2023-06-10T06:23:09;100739.59;;;27.16
63689;BMP280;54895;40.928;14.480;2023-06-10T06:25:37;100742.09;;;27.29
63689;BMP280;54895;40.928;14.480;2023-06-10T06:28:09;100751.53;;;27.45
63689;BMP280;54895;40.928;14.480;2023-06-10T06:30:36;100753.81;;;27.53
63689;BMP280;54895;40.928;14.480;2023-06-10T06:33:03;100752.44;;;27.33
63689;BMP280;54895;40.928;14.480;2023-06-10T06:35:31;100757.06;;;27.47
63689;BMP280;54895;40.928;14.480;2023-06-10T06:37:58;100771.81;;;27.81
63689;BMP280;54895;40.928;14.480;2023-06-10T06:40:28;100789.22;;;28.13
63689;BMP280;54895;40.928;14.480;2023-06-10T06:42:55;100817.41;;;28.41
63689;BMP280;54895;40.928;14.480;2023-06-10T06:45:29;100829.97;;;28.50
63689;BMP280;54895;40.928;14.480;2023-06-10T06:47:57;100847.63;;;28.68
63689;BMP280;54895;40.928;14.480;2023-06-10T06:50:24;100842.97;;;28.73
63689;BMP280;54895;40.928;14.480;2023-06-10T06:52:51;100845.34;;;28.84
63689;BMP280;54895;40.928;14.480;2023-06-10T06:55:18;100855.63;;;28.84
63689;BMP280;54895;40.928;14.480;2023-06-10T06:57:45;100853.38;;;29.02
63689;BMP280;54895;40.928;14.480;2023-06-10T07:00:13;100858.97;;;29.06
63689;BMP280;54895;40.928;14.480;2023-06-10T07:02:40;100868.06;;;29.12
63689;BMP280;54895;40.928;14.480;2023-06-10T07:08:31;100872.09;;;29.35
63689;BMP280;54895;40.928;14.480;2023-06-10T07:10:58;100871.59;;;29.17
63689;BMP280;54895;40.928;14.480;2023-06-10T07:13:24;100880.78;;;29.27
63689;BMP280;54895;40.928;14.480;2023-06-10T07:15:50;100879.84;;;29.44
63689;BMP280;54895;40.928;14.480;2023-06-10T07:18:16;100879.25;;;29.48
63689;BMP280;54895;40.928;14.480;2023-06-10T07:20:43;100881.22;;;29.43
63689;BMP280;54895;40.928;14.480;2023-06-10T07:23:10;100896.34;;;29.71
63689;BMP280;54895;40.928;14.480;2023-06-10T07:25:36;100897.53;;;29.64
63689;BMP280;54895;40.928;14.480;2023-06-10T07:28:02;100909.00;;;29.86
63689;BMP280;54895;40.928;14.480;2023-06-10T07:30:29;100911.63;;;29.53
63689;BMP280;54895;40.928;14.480;2023-06-10T07:32:55;100910.94;;;29.04
63689;BMP280;54895;40.928;14.480;2023-06-10T07:35:22;100907.19;;;29.15
63689;BMP280;54895;40.928;14.480;2023-06-10T07:37:48;100918.16;;;29.17
63689;BMP280;54895;40.928;14.480;2023-06-10T07:40:14;100916.22;;;29.47
63689;BMP280;54895;40.928;14.480;2023-06-10T07:42:41;100929.34;;;29.75
63689;BMP280;54895;40.928;14.480;2023-06-10T07:45:08;100935.03;;;30.11
63689;BMP280;54895;40.928;14.480;2023-06-10T07:47:34;100943.19;;;30.09
63689;BMP280;54895;40.928;14.480;2023-06-10T07:50:01;100932.16;;;29.52
63689;BMP280;54895;40.928;14.480;2023-06-10T07:52:27;100945.00;;;29.98
63689;BMP280;54895;40.928;14.480;2023-06-10T07:54:54;100942.03;;;29.88
63689;BMP280;54895;40.928;14.480;2023-06-10T07:57:21;100944.69;;;29.86
63689;BMP280;54895;40.928;14.480;2023-06-10T07:59:47;100939.13;;;30.12
63689;BMP280;54895;40.928;14.480;2023-06-10T08:02:14;100945.00;;;30.57
63689;BMP280;54895;40.928;14.480;2023-06-10T08:08:26;100942.50;;;31.38
63689;BMP280;54895;40.928;14.480;2023-06-10T08:10:53;100935.09;;;31.46
63689;BMP280;54895;40.928;14.480;2023-06-10T08:13:20;100951.53;;;31.44
63689;BMP280;54895;40.928;14.480;2023-06-10T08:15:47;100946.81;;;31.48
63689;BMP280;54895;40.928;14.480;2023-06-10T08:18:17;100952.25;;;31.45
63689;BMP280;54895;40.928;14.480;2023-06-10T08:20:43;100951.00;;;31.53
63689;BMP280;54895;40.928;14.480;2023-06-10T08:23:10;100950.84;;;31.44
63689;BMP280;54895;40.928;14.480;2023-06-10T08:25:37;100952.78;;;31.76
63689;BMP280;54895;40.928;14.480;2023-06-10T08:28:04;100950.50;;;31.63
63689;BMP280;54895;40.928;14.480;2023-06-10T08:30:31;100948.28;;;31.55
63689;BMP280;54895;40.928;14.480;2023-06-10T08:32:57;100948.34;;;31.57
63689;BMP280;54895;40.928;14.480;2023-06-10T08:35:25;100950.00;;;31.35
63689;BMP280;54895;40.928;14.480;2023-06-10T08:37:52;100949.66;;;31.54
63689;BMP280;54895;40.928;14.480;2023-06-10T08:40:20;100953.66;;;31.87
63689;BMP280;54895;40.928;14.480;2023-06-10T08:43:17;100951.50;;;32.27
63689;BMP280;54895;40.928;14.480;2023-06-10T08:45:49;100956.09;;;32.10
63689;BMP280;54895;40.928;14.480;2023-06-10T08:48:17;100948.69;;;31.38
63689;BMP280;54895;40.928;14.480;2023-06-10T08:50:46;100949.72;;;32.49
63689;BMP280;54895;40.928;14.480;2023-06-10T08:53:17;100953.22;;;33.09
63689;BMP280;54895;40.928;14.480;2023-06-10T08:55:49;100950.84;;;32.30
63689;BMP280;54895;40.928;14.480;2023-06-10T08:58:19;100943.50;;;30.83
63689;BMP280;54895;40.928;14.480;2023-06-10T09:00:46;100943.56;;;30.25
63689;BMP280;54895;40.928;14.480;2023-06-10T09:03:13;100936.78;;;30.59
63689;BMP280;54895;40.928;14.480;2023-06-10T09:05:41;100938.50;;;29.86
63689;BMP280;54895;40.928;14.480;2023-06-10T09:08:09;100942.47;;;29.53
63689;BMP280;54895;40.928;14.480;2023-06-10T09:10:36;100937.63;;;29.27
63689;BMP280;54895;40.928;14.480;2023-06-10T09:13:03;100935.94;;;28.90
63689;BMP280;54895;40.928;14.480;2023-06-10T09:15:30;100925.19;;;28.75
63689;BMP280;54895;40.928;14.480;2023-06-10T09:17:58;100927.84;;;28.71
63689;BMP280;54895;40.928;14.480;2023-06-10T09:20:25;100921.03;;;28.72
63689;BMP280;54895;40.928;14.480;2023-06-10T09:22:53;100927.47;;;27.95
63689;BMP280;54895;40.928;14.480;2023-06-10T09:25:34;100925.63;;;28.01
63689;BMP280;54895;40.928;14.480;2023-06-10T09:28:03;100908.22;;;27.71
63689;BMP280;54895;40.928;14.480;2023-06-10T09:30:32;100916.84;;;27.64
63689;BMP280;54895;40.928;14.480;2023-06-10T09:33:01;100912.38;;;27.53
63689;BMP280;54895;40.928;14.480;2023-06-10T09:35:30;100907.84;;;27.42
63689;BMP280;54895;40.928;14.480;2023-06-10T09:37:59;100909.28;;;27.62
63689;BMP280;54895;40.928;14.480;2023-06-10T09:40:28;100896.22;;;27.22
63689;BMP280;54895;40.928;14.480;2023-06-10T09:43:00;100891.72;;;27.31
63689;BMP280;54895;40.928;14.480;2023-06-10T09:45:30;100865.44;;;27.02
63689;BMP280;54895;40.928;14.480;2023-06-10T09:48:00;100801.25;;;26.64
63689;BMP280;54895;40.928;14.480;2023-06-10T09:50:27;100707.66;;;26.42
63689;BMP280;54895;40.928;14.480;2023-06-10T09:52:54;100684.13;;;26.33
63689;BMP280;54895;40.928;14.480;2023-06-10T09:55:21;100696.06;;;26.42
63689;BMP280;54895;40.928;14.480;2023-06-10T09:57:53;100686.63;;;26.45
63689;BMP280;54895;40.928;14.480;2023-06-10T10:00:22;100677.72;;;26.64
63689;BMP280;54895;40.928;14.480;2023-06-10T10:02:50;100685.53;;;26.93
63689;BMP280;54895;40.928;14.480;2023-06-10T10:05:19;100723.09;;;26.73
63689;BMP280;54895;40.928;14.480;2023-06-10T10:07:46;100696.09;;;27.22
63689;BMP280;54895;40.928;14.480;2023-06-10T10:10:14;100723.75;;;27.74
63689;BMP280;54895;40.928;14.480;2023-06-10T10:12:42;100735.25;;;27.09
63689;BMP280;54895;40.928;14.480;2023-06-10T10:15:17;100721.06;;;27.34
63689;BMP280;54895;40.928;14.480;2023-06-10T10:18:13;100734.13;;;26.57
63689;BMP280;54895;40.928;14.480;2023-06-10T10:20:47;100647.41;;;26.36
63689;BMP280;54895;40.928;14.480;2023-06-10T10:23:48;100619.91;;;26.11
63689;BMP280;54895;40.928;14.480;2023-06-10T10:26:12;100595.19;;;25.70
63689;BMP280;54895;40.928;14.480;2023-06-10T10:28:58;100568.25;;;25.43
63689;BMP280;54895;40.928;14.480;2023-06-10T10:31:27;100511.00;;;25.41
63689;BMP280;54895;40.928;14.480;2023-06-10T10:33:58;100520.81;;;25.48
63689;BMP280;54895;40.928;14.480;2023-06-10T10:36:25;100535.72;;;25.65
63689;BMP280;54895;40.928;14.480;2023-06-10T10:38:53;100590.41;;;25.88
63689;BMP280;54895;40.928;14.480;2023-06-10T10:41:20;100519.44;;;25.49
63689;BMP280;54895;40.928;14.480;2023-06-10T10:43:49;100594.06;;;26.51
63689;BMP280;54895;40.928;14.480;2023-06-10T10:46:18;100692.09;;;27.25
63689;BMP280;54895;40.928;14.480;2023-06-10T10:48:47;100703.25;;;27.33
63689;BMP280;54895;40.928;14.480;2023-06-10T10:51:17;100677.13;;;26.87
63689;BMP280;54895;40.928;14.480;2023-06-10T10:54:10;100683.28;;;26.48
63689;BMP280;54895;40.928;14.480;2023-06-10T10:56:38;100589.97;;;26.13
63689;BMP280;54895;40.928;14.480;2023-06-10T10:59:06;100577.91;;;26.20
63689;BMP280;54895;40.928;14.480;2023-06-10T11:01:40;100607.56;;;25.73
63689;BMP280;54895;40.928;14.480;2023-06-10T11:04:08;100543.38;;;26.07
63689;BMP280;54895;40.928;14.480;2023-06-10T11:06:37;100572.22;;;25.40
63689;BMP280;54895;40.928;14.480;2023-06-10T11:09:26;100585.00;;;25.18
63689;BMP280;54895;40.928;14.480;2023-06-10T11:11:59;100550.06;;;25.13
63689;BMP280;54895;40.928;14.480;2023-06-10T11:14:27;100501.19;;;25.34
63689;BMP280;54895;40.928;14.480;2023-06-10T11:16:58;100495.69;;;24.98
63689;BMP280;54895;40.928;14.480;2023-06-10T11:19:34;100446.34;;;25.24
63689;BMP280;54895;40.928;14.480;2023-06-10T11:22:05;100469.78;;;25.51
63689;BMP280;54895;40.928;14.480;2023-06-10T11:24:31;100482.06;;;24.98
63689;BMP280;54895;40.928;14.480;2023-06-10T11:27:21;100469.47;;;24.89
63689;BMP280;54895;40.928;14.480;2023-06-10T11:32:31;100543.34;;;25.68
63689;BMP280;54895;40.928;14.480;2023-06-10T11:34:58;100624.34;;;25.48
63689;BMP280;54895;40.928;14.480;2023-06-10T11:37:25;100627.28;;;26.09
63689;BMP280;54895;40.928;14.480;2023-06-10T11:39:56;100705.09;;;26.66
63689;BMP280;54895;40.928;14.480;2023-06-10T11:42:22;100734.25;;;26.42
63689;BMP280;54895;40.928;14.480;2023-06-10T11:44:50;100780.06;;;27.21
63689;BMP280;54895;40.928;14.480;2023-06-10T11:47:18;100796.34;;;27.79
63689;BMP280;54895;40.928;14.480;2023-06-10T11:49:45;100814.91;;;26.84
63689;BMP280;54895;40.928;14.480;2023-06-10T11:52:12;100788.66;;;27.74
63689;BMP280;54895;40.928;14.480;2023-06-10T11:54:38;100816.16;;;27.37
63689;BMP280;54895;40.928;14.480;2023-06-10T11:57:05;100829.09;;;27.37
63689;BMP280;54895;40.928;14.480;2023-06-10T11:59:31;100815.50;;;27.79
63689;BMP280;54895;40.928;14.480;2023-06-10T12:01:58;100802.97;;;27.72
63689;BMP280;54895;40.928;14.480;2023-06-10T12:04:24;100792.59;;;27.47
63689;BMP280;54895;40.928;14.480;2023-06-10T12:06:53;100781.16;;;27.53
63689;BMP280;54895;40.928;14.480;2023-06-10T12:09:27;100754.13;;;27.84
63689;BMP280;54895;40.928;14.480;2023-06-10T12:11:58;100756.38;;;27.68
63689;BMP280;54895;40.928;14.480;2023-06-10T12:14:55;100784.16;;;27.82
63689;BMP280;54895;40.928;14.480;2023-06-10T12:20:00;100763.31;;;27.71
63689;BMP280;54895;40.928;14.480;2023-06-10T12:22:42;100764.53;;;28.11
63689;BMP280;54895;40.928;14.480;2023-06-10T12:25:10;100774.78;;;28.34
63689;BMP280;54895;40.928;14.480;2023-06-10T12:27:40;100778.66;;;28.27
63689;BMP280;54895;40.928;14.480;2023-06-10T12:30:19;100781.19;;;28.19
63689;BMP280;54895;40.928;14.480;2023-06-10T12:32:47;100776.66;;;28.76
63689;BMP280;54895;40.928;14.480;2023-06-10T12:35:19;100789.91;;;29.39
63689;BMP280;54895;40.928;14.480;2023-06-10T12:38:04;100802.84;;;29.63
63689;BMP280;54895;40.928;14.480;2023-06-10T12:40:34;100804.94;;;29.94
63689;BMP280;54895;40.928;14.480;2023-06-10T12:43:02;100812.41;;;29.90
63689;BMP280;54895;40.928;14.480;2023-06-10T12:45:31;100823.47;;;30.25
63689;BMP280;54895;40.928;14.480;2023-06-10T12:48:18;100819.75;;;31.17
63689;BMP280;54895;40.928;14.480;2023-06-10T12:50:57;100813.31;;;31.44
63689;BMP280;54895;40.928;14.480;2023-06-10T12:53:25;100822.00;;;31.73
63689;BMP280;54895;40.928;14.480;2023-06-10T12:55:55;100821.53;;;31.87
63689;BMP280;54895;40.928;14.480;2023-06-10T12:58:22;100818.81;;;31.44
63689;BMP280;54895;40.928;14.480;2023-06-10T13:00:49;100817.13;;;32.17
63689;BMP280;54895;40.928;14.480;2023-06-10T13:03:18;100814.13;;;31.09
63689;BMP280;54895;40.928;14.480;2023-06-10T13:05:46;100810.97;;;31.69
63689;BMP280;54895;40.928;14.480;2023-06-10T13:08:15;100806.81;;;30.86
63689;BMP280;54895;40.928;14.480;2023-06-10T13:10:42;100810.09;;;30.41
63689;BMP280;54895;40.928;14.480;2023-06-10T13:13:09;100811.63;;;30.50
63689;BMP280;54895;40.928;14.480;2023-06-10T13:15:36;100810.56;;;30.32
63689;BMP280;54895;40.928;14.480;2023-06-10T13:18:04;100808.03;;;31.59
63689;BMP280;54895;40.928;14.480;2023-06-10T13:20:31;100801.22;;;32.75
63689;BMP280;54895;40.928;14.480;2023-06-10T13:22:58;100801.16;;;32.69
63689;BMP280;54895;40.928;14.480;2023-06-10T13:25:25;100815.69;;;33.58
63689;BMP280;54895;40.928;14.480;2023-06-10T13:27:51;100804.16;;;32.93
63689;BMP280;54895;40.928;14.480;2023-06-10T13:30:18;100792.22;;;32.68
63689;BMP280;54895;40.928;14.480;2023-06-10T13:32:46;100790.31;;;30.84
63689;BMP280;54895;40.928;14.480;2023-06-10T13:35:13;100790.44;;;31.78
63689;BMP280;54895;40.928;14.480;2023-06-10T13:37:40;100786.56;;;32.56
63689;BMP280;54895;40.928;14.480;2023-06-10T13:40:07;100773.91;;;31.31
63689;BMP280;54895;40.928;14.480;2023-06-10T13:42:35;100771.16;;;31.76
63689;BMP280;54895;40.928;14.480;2023-06-10T13:45:05;100777.75;;;32.07
63689;BMP280;54895;40.928;14.480;2023-06-10T13:47:32;100779.41;;;31.76
63689;BMP280;54895;40.928;14.480;2023-06-10T13:49:59;100762.09;;;31.21
63689;BMP280;54895;40.928;14.480;2023-06-10T13:52:25;100771.56;;;32.08
63689;BMP280;54895;40.928;14.480;2023-06-10T13:54:52;100754.16;;;32.51
63689;BMP280;54895;40.928;14.480;2023-06-10T13:57:18;100757.84;;;32.77
63689;BMP280;54895;40.928;14.480;2023-06-10T13:59:45;100773.50;;;32.57
63689;BMP280;54895;40.928;14.480;2023-06-10T14:02:12;100755.47;;;32.44
63689;BMP280;54895;40.928;14.480;2023-06-10T14:04:39;100766.88;;;32.17
63689;BMP280;54895;40.928;14.480;2023-06-10T14:07:05;100778.47;;;33.63
63689;BMP280;54895;40.928;14.480;2023-06-10T14:09:32;100785.53;;;34.04
63689;BMP280;54895;40.928;14.480;2023-06-10T14:11:59;100771.72;;;34.02
63689;BMP280;54895;40.928;14.480;2023-06-10T14:14:25;100766.25;;;34.26
63689;BMP280;54895;40.928;14.480;2023-06-10T14:16:52;100777.22;;;33.94